Time;durP1;ratioP1;P1;durP2;ratioP2;P2;SDS_P1;SDS_P2;PMS_P1;PMS_P2;Temp;Humidity;BMP_temperature;BMP_pressure;BME280_temperature;BME280_humidity;BME280_pressure;Samples;Min_cycle;Max_cycle;Signal;HPM_P1;HPM_P2
2022/07/22 00:01:52;;;;;;;15.02;13.52;;;;;;;30.98;37.69;100576.31;4988287;28;20614;-69
2022/07/22 00:04:18;;;;;;;14.40;12.90;;;;;;;30.98;38.05;100575.50;4988619;28;20050;-70
2022/07/22 00:06:43;;;;;;;14.75;12.23;;;;;;;30.97;38.01;100576.59;4988687;28;20416;-69
2022/07/22 00:09:09;;;;;;;13.75;12.45;;;;;;;30.97;37.84;100579.28;4985111;28;20104;-70
2022/07/22 00:11:35;;;;;;;14.63;13.15;;;;;;;30.96;38.32;100573.09;4969114;28;20039;-71
2022/07/22 00:14:01;;;;;;;14.38;12.98;;;;;;;30.96;37.88;100572.28;4969631;28;20037;-70
2022/07/22 00:16:26;;;;;;;17.98;13.93;;;;;;;30.96;38.05;100572.28;4969159;28;20034;-70
2022/07/22 00:18:52;;;;;;;14.32;12.93;;;;;;;30.95;37.74;100559.91;4968935;28;20031;-70
2022/07/22 00:21:17;;;;;;;13.45;12.05;;;;;;;30.95;37.99;100565.28;4981985;28;20038;-69
2022/07/22 00:23:43;;;;;;;14.95;12.57;;;;;;;30.95;38.15;100557.22;4987683;28;20077;-69
2022/07/22 00:26:08;;;;;;;13.35;12.05;;;;;;;30.94;37.61;100567.19;4988404;28;20429;-70
2022/07/22 00:28:34;;;;;;;12.65;11.45;;;;;;;30.94;37.87;100558.31;4988430;28;20150;-69
2022/07/22 00:30:59;;;;;;;12.13;11.00;;;;;;;30.95;37.87;100559.91;4985720;28;20546;-70
2022/07/22 00:33:25;;;;;;;14.63;11.85;;;;;;;30.94;37.25;100564.50;4988199;28;20037;-70
2022/07/22 00:35:50;;;;;;;12.77;11.57;;;;;;;30.95;37.18;100562.59;4988352;28;20030;-70
2022/07/22 00:38:15;;;;;;;12.55;11.45;;;;;;;30.95;37.35;100555.34;4988398;28;20047;-69
2022/07/22 00:40:41;;;;;;;14.48;12.98;;;;;;;30.97;37.14;100563.13;4986401;28;20419;-69
2022/07/22 00:43:07;;;;;;;17.15;15.00;;;;;;;30.97;37.42;100563.13;4988627;28;20173;-69
2022/07/22 00:45:32;;;;;;;18.00;15.15;;;;;;;30.97;37.14;100557.75;4988312;28;20061;-70
2022/07/22 00:47:58;;;;;;;18.02;16.13;;;;;;;30.97;37.45;100563.13;4987988;28;20097;-70
2022/07/22 00:50:23;;;;;;;19.88;17.88;;;;;;;30.97;37.09;100552.38;4986705;28;20030;-68
2022/07/22 00:52:49;;;;;;;17.70;15.98;;;;;;;30.97;37.42;100557.75;4989902;28;20430;-70
2022/07/22 00:55:15;;;;;;;17.60;15.90;;;;;;;30.96;37.09;100561.53;4991229;28;20026;-70
2022/07/22 00:57:41;;;;;;;19.10;16.77;;;;;;;30.96;36.98;100553.47;4990805;28;20030;-70
2022/07/22 01:00:10;;;;;;;15.80;14.30;;;;;;;30.96;37.14;100553.47;4990798;28;20458;-70
2022/07/22 01:02:35;;;;;;;14.40;13.10;;;;;;;30.95;37.09;100555.34;4991286;28;20061;-69
2022/07/22 01:05:01;;;;;;;15.55;13.98;;;;;;;30.94;36.91;100553.72;4992187;28;20027;-70
2022/07/22 01:07:26;;;;;;;11.90;10.70;;;;;;;30.93;37.29;100559.38;4991842;28;20070;-69
2022/07/22 01:09:52;;;;;;;12.82;11.52;;;;;;;30.92;36.80;100549.72;4990385;28;20033;-70
2022/07/22 01:12:17;;;;;;;13.23;11.90;;;;;;;30.91;37.18;100556.16;4990835;28;20101;-70
2022/07/22 01:14:43;;;;;;;12.52;11.30;;;;;;;30.88;37.00;100549.47;4990284;28;20088;-69
2022/07/22 01:17:08;;;;;;;12.32;10.98;;;;;;;30.89;36.99;100550.25;4991862;28;20030;-69
2022/07/22 01:19:36;;;;;;;11.27;10.15;;;;;;;30.87;37.12;100545.16;4990006;28;20027;-69
2022/07/22 01:22:02;;;;;;;12.40;11.20;;;;;;;30.88;36.95;100545.97;4991341;28;20030;-70
2022/07/22 01:24:28;;;;;;;12.32;10.13;;;;;;;30.88;37.05;100549.47;4990718;28;20068;-69
2022/07/22 01:26:53;;;;;;;13.88;10.27;;;;;;;30.88;37.01;100543.28;4991370;28;20038;-69
2022/07/22 01:29:18;;;;;;;11.43;10.27;;;;;;;30.87;36.49;100542.47;4991734;28;20025;-69
2022/07/22 01:31:44;;;;;;;11.60;10.60;;;;;;;30.85;36.62;100541.94;4988654;28;20065;-69
2022/07/22 01:34:09;;;;;;;11.65;10.52;;;;;;;30.85;36.86;100538.44;4989198;28;20038;-70
2022/07/22 01:36:35;;;;;;;11.57;9.63;;;;;;;30.86;36.36;100550.81;4991074;28;20030;-69
2022/07/22 01:39:00;;;;;;;10.80;9.85;;;;;;;30.86;36.42;100540.06;4991116;28;20380;-69
2022/07/22 01:41:26;;;;;;;11.02;10.02;;;;;;;30.86;36.73;100540.88;4989226;28;20034;-70
2022/07/22 01:43:51;;;;;;;11.60;10.50;;;;;;;30.86;36.54;100540.06;4991010;28;20026;-70
2022/07/22 01:46:18;;;;;;;11.18;10.10;;;;;;;30.85;36.23;100538.44;4991019;28;20034;-69
2022/07/22 01:48:44;;;;;;;13.02;10.63;;;;;;;30.85;36.79;100536.56;4991129;28;20026;-70
2022/07/22 01:51:09;;;;;;;10.95;10.02;;;;;;;30.85;36.34;100535.75;4989686;28;20045;-70
2022/07/22 01:53:35;;;;;;;11.40;10.30;;;;;;;30.85;36.33;100533.88;4990881;28;20034;-70
2022/07/22 01:56:00;;;;;;;12.20;10.65;;;;;;;30.85;36.35;100533.88;4990029;28;20042;-70
2022/07/22 01:58:26;;;;;;;13.57;12.10;;;;;;;30.85;36.54;100535.75;4989990;28;20039;-70
2022/07/22 02:00:51;;;;;;;14.82;13.25;;;;;;;30.85;36.78;100531.19;4990272;28;20406;-70
2022/07/22 02:03:17;;;;;;;14.63;13.25;;;;;;;30.85;36.39;100522.31;4990322;28;20045;-71
2022/07/22 02:05:42;;;;;;;16.85;15.13;;;;;;;30.84;36.79;100529.56;4990270;28;20030;-69
2022/07/22 02:08:10;;;;;;;16.85;15.25;;;;;;;30.86;36.45;100532.00;4989388;28;20458;-70
2022/07/22 02:10:36;;;;;;;17.30;15.60;;;;;;;30.85;36.54;100530.38;4989707;28;20034;-70
2022/07/22 02:13:01;;;;;;;15.57;14.07;;;;;;;30.85;36.50;100522.31;4990567;28;20066;-70
2022/07/22 02:15:27;;;;;;;18.27;16.58;;;;;;;30.84;36.89;100536.84;4990289;28;20371;-69
2022/07/22 02:17:53;;;;;;;17.63;15.82;;;;;;;30.83;36.70;100527.16;4990395;28;20065;-70
2022/07/22 02:20:18;;;;;;;18.83;17.08;;;;;;;30.83;36.89;100529.84;4987359;28;20034;-69
2022/07/22 02:22:44;;;;;;;21.80;17.08;;;;;;;30.82;37.01;100517.47;4990637;28;20045;-69
2022/07/22 02:25:10;;;;;;;18.80;16.92;;;;;;;30.81;36.58;100519.38;4989938;28;20023;-69
2022/07/22 02:27:35;;;;;;;20.52;18.50;;;;;;;30.83;36.58;100527.16;4990205;28;20114;-69
2022/07/22 02:30:01;;;;;;;21.25;18.92;;;;;;;30.82;36.87;100526.34;4988197;28;20034;-70
2022/07/22 02:32:26;;;;;;;21.00;18.98;;;;;;;30.82;36.62;100536.31;4990175;28;20033;-69
2022/07/22 02:34:52;;;;;;;22.95;20.63;;;;;;;30.82;36.84;100528.25;4988890;28;20084;-68
2022/07/22 02:37:17;;;;;;;21.42;19.23;;;;;;;30.80;36.69;100523.13;4990184;28;20494;-70
2022/07/22 02:39:43;;;;;;;24.75;22.27;;;;;;;30.80;36.94;100516.97;4988339;28;20814;-68
2022/07/22 02:42:08;;;;;;;24.52;21.95;;;;;;;30.80;36.57;100514.25;4975983;28;20100;-70
2022/07/22 02:44:34;;;;;;;25.35;22.75;;;;;;;30.78;36.59;100521.81;4989700;28;20106;-69
2022/07/22 02:46:59;;;;;;;26.67;23.90;;;;;;;30.78;36.70;100521.81;4988537;28;20080;-68
2022/07/22 02:49:25;;;;;;;26.55;22.40;;;;;;;30.77;36.67;100522.88;4988519;28;20034;-70
2022/07/22 02:51:50;;;;;;;25.13;22.45;;;;;;;30.76;37.16;100524.78;4988527;28;20066;-70
2022/07/22 02:54:16;;;;;;;25.95;23.27;;;;;;;30.76;36.64;100521.28;4989819;28;20593;-69
2022/07/22 02:56:41;;;;;;;27.25;24.42;;;;;;;30.76;36.59;100518.59;4988854;28;20072;-70
2022/07/22 03:01:42;;;;;;;30.10;26.70;;;;;;;30.75;37.18;100523.16;5090020;23;20058;-69
2022/07/22 03:04:07;;;;;;;28.85;25.73;;;;;;;30.76;37.06;100532.03;5008670;28;20108;-70
2022/07/22 03:06:33;;;;;;;27.55;24.75;;;;;;;30.76;36.84;100532.03;5009058;28;20489;-69
2022/07/22 03:08:58;;;;;;;30.60;27.38;;;;;;;30.76;37.02;100532.03;5007335;28;20041;-70
2022/07/22 03:11:24;;;;;;;31.92;25.50;;;;;;;30.76;36.67;100529.34;5008145;28;20539;-70
2022/07/22 03:13:49;;;;;;;28.10;25.17;;;;;;;30.74;36.85;100529.63;5007675;28;20041;-70
2022/07/22 03:16:14;;;;;;;29.77;26.50;;;;;;;30.75;36.81;100533.13;5007963;28;20053;-69
2022/07/22 03:18:40;;;;;;;27.95;24.67;;;;;;;30.74;36.86;100529.63;5008100;28;20029;-70
2022/07/22 03:21:06;;;;;;;25.67;23.08;;;;;;;30.74;36.70;100528.81;5008461;28;20380;-69
2022/07/22 03:23:31;;;;;;;20.77;18.67;;;;;;;30.73;36.42;100530.69;5008202;28;20037;-70
2022/07/22 03:25:56;;;;;;;24.17;20.50;;;;;;;30.73;36.42;100538.78;5007282;28;20037;-69
2022/07/22 03:28:22;;;;;;;17.38;15.60;;;;;;;30.73;36.32;100543.34;5008381;28;20026;-69
2022/07/22 03:30:48;;;;;;;17.80;15.52;;;;;;;30.72;36.66;100539.06;5007995;28;20289;-70
2022/07/22 03:33:13;;;;;;;16.15;14.57;;;;;;;30.72;36.41;100537.16;5008105;28;20056;-70
2022/07/22 03:35:39;;;;;;;14.15;12.82;;;;;;;30.71;36.50;100546.34;5007538;28;20037;-71
2022/07/22 03:38:04;;;;;;;13.10;11.70;;;;;;;30.71;36.58;100548.22;5005546;28;20113;-69
2022/07/22 03:40:30;;;;;;;12.82;11.65;;;;;;;30.69;36.37;100543.91;5008744;28;20029;-70
2022/07/22 03:42:55;;;;;;;13.07;11.27;;;;;;;30.68;36.27;100542.31;5008386;28;20040;-70
2022/07/22 03:45:21;;;;;;;11.85;10.65;;;;;;;30.67;36.36;100551.47;5008923;28;20209;-69
2022/07/22 03:47:46;;;;;;;13.07;10.27;;;;;;;30.65;36.08;100550.94;5008614;28;20044;-70
2022/07/22 03:50:12;;;;;;;13.07;11.77;;;;;;;30.64;36.10;100551.19;5008396;28;20468;-68
2022/07/22 03:52:37;;;;;;;12.52;10.20;;;;;;;30.51;36.10;100546.38;5008533;28;20029;-71
2022/07/22 03:55:04;;;;;;;13.38;9.73;;;;;;;30.40;36.42;100547.50;5008281;28;20030;-70
2022/07/22 03:57:30;;;;;;;11.80;9.80;;;;;;;30.28;36.48;100550.47;5008441;28;20084;-69
2022/07/22 03:59:55;;;;;;;10.93;9.95;;;;;;;30.19;36.92;100557.50;5008235;28;20402;-70
2022/07/22 04:02:21;;;;;;;12.13;10.38;;;;;;;30.13;37.02;100547.84;5008114;28;20064;-70
2022/07/22 04:04:46;;;;;;;12.00;9.15;;;;;;;30.08;36.83;100547.84;5008412;28;20030;-69
2022/07/22 04:07:11;;;;;;;12.77;9.63;;;;;;;30.01;37.06;100546.25;5008308;28;20030;-68
2022/07/22 04:09:37;;;;;;;14.27;10.43;;;;;;;30.00;36.66;100552.69;5008117;28;20026;-70
2022/07/22 04:12:03;;;;;;;12.32;10.07;;;;;;;29.99;36.59;100548.41;5008483;28;20113;-69
2022/07/22 04:14:28;;;;;;;12.43;9.63;;;;;;;29.98;36.63;100546.75;5008153;28;20034;-70
2022/07/22 04:16:53;;;;;;;11.07;9.88;;;;;;;30.01;36.96;100548.94;5008276;28;20018;-70
2022/07/22 04:19:19;;;;;;;10.57;9.43;;;;;;;30.00;36.72;100555.38;5008639;28;20026;-68
2022/07/22 04:21:44;;;;;;;10.88;9.80;;;;;;;29.99;36.92;100545.72;5008151;28;20429;-69
2022/07/22 04:24:10;;;;;;;10.38;9.48;;;;;;;29.92;36.55;100550.53;5007278;28;20026;-70
2022/07/22 04:26:36;;;;;;;14.63;9.88;;;;;;;29.86;36.65;100548.91;5007921;28;20026;-70
2022/07/22 04:29:02;;;;;;;11.82;9.98;;;;;;;29.86;37.08;100543.53;5011751;28;20364;-70
2022/07/22 04:31:28;;;;;;;11.13;10.02;;;;;;;29.87;36.53;100547.84;5012198;28;20105;-69
2022/07/22 04:33:53;;;;;;;11.05;9.95;;;;;;;29.86;37.07;100543.53;5011915;28;20235;-69
2022/07/22 04:36:19;;;;;;;18.65;10.15;;;;;;;29.86;36.94;100543.53;5011821;28;20029;-70
2022/07/22 04:38:44;;;;;;;11.95;9.40;;;;;;;29.90;36.63;100550.00;5011934;28;20032;-70
2022/07/22 04:41:09;;;;;;;12.23;9.68;;;;;;;29.90;37.13;100544.63;5011732;28;20026;-69
2022/07/22 04:43:35;;;;;;;12.77;9.55;;;;;;;29.86;36.88;100548.91;5011950;28;20030;-70
2022/07/22 04:46:00;;;;;;;10.77;9.75;;;;;;;29.75;36.92;100551.91;5011876;28;20049;-71
2022/07/22 04:48:26;;;;;;;11.10;9.57;;;;;;;29.75;36.84;100558.06;5011900;28;20430;-70
2022/07/22 04:50:51;;;;;;;13.45;10.05;;;;;;;29.74;36.87;100552.97;5012012;28;20029;-69
2022/07/22 04:53:17;;;;;;;15.15;9.55;;;;;;;29.73;37.25;100556.72;5011651;28;20052;-69
2022/07/22 04:55:42;;;;;;;13.07;9.50;;;;;;;29.71;37.42;100554.31;5011546;28;20504;-69
2022/07/22 04:58:08;;;;;;;9.82;8.93;;;;;;;29.71;37.42;100559.69;5011797;28;20033;-70
2022/07/22 05:00:33;;;;;;;11.02;9.85;;;;;;;29.72;37.42;100558.59;5011298;28;20121;-70
2022/07/22 05:02:58;;;;;;;12.77;9.85;;;;;;;29.74;36.83;100552.97;5011256;28;20034;-69
2022/07/22 05:05:25;;;;;;;13.88;9.20;;;;;;;29.75;36.80;100557.28;5011331;28;20038;-71
2022/07/22 05:07:50;;;;;;;14.63;9.10;;;;;;;29.74;37.19;100556.47;5011810;28;20025;-70
2022/07/22 05:10:16;;;;;;;11.88;9.07;;;;;;;29.76;36.73;100556.19;5011124;28;20029;-70
2022/07/22 05:12:42;;;;;;;11.63;9.38;;;;;;;29.78;36.82;100557.50;5011613;28;20033;-69
2022/07/22 05:15:08;;;;;;;13.10;8.98;;;;;;;29.80;37.24;100549.19;5011349;28;20042;-70
2022/07/22 05:17:33;;;;;;;15.32;9.20;;;;;;;29.87;36.81;100555.91;5011086;28;20025;-69
2022/07/22 05:19:58;;;;;;;9.77;8.75;;;;;;;29.92;37.12;100558.56;5011065;28;20033;-69
2022/07/22 05:22:24;;;;;;;12.23;9.40;;;;;;;29.91;37.17;100551.59;5011020;28;20396;-70
2022/07/22 05:24:50;;;;;;;10.65;7.90;;;;;;;29.90;36.79;100551.88;5010737;28;20037;-69
2022/07/22 05:27:16;;;;;;;13.13;7.50;;;;;;;29.88;37.05;100557.50;5011186;28;20033;-71
2022/07/22 05:29:41;;;;;;;9.63;8.25;;;;;;;29.89;36.65;100552.94;5011037;28;20373;-69
2022/07/22 05:32:06;;;;;;;10.82;7.80;;;;;;;29.88;36.92;100552.13;5010976;28;20030;-70
2022/07/22 05:34:32;;;;;;;9.55;8.32;;;;;;;29.89;37.04;100556.44;5010861;28;20030;-70
2022/07/22 05:36:57;;;;;;;10.45;8.45;;;;;;;29.89;36.98;100548.38;5010797;28;20033;-68
2022/07/22 05:39:23;;;;;;;8.82;7.93;;;;;;;29.89;36.71;100551.06;5010635;28;20037;-68
2022/07/22 05:41:48;;;;;;;9.27;7.60;;;;;;;29.89;36.59;100552.94;5010868;28;20113;-69
2022/07/22 05:44:14;;;;;;;10.80;8.18;;;;;;;29.85;36.65;100552.66;5011050;28;20037;-69
2022/07/22 05:46:39;;;;;;;10.20;8.10;;;;;;;29.83;36.63;100549.44;5010915;28;20533;-70
2022/07/22 05:49:05;;;;;;;11.73;7.95;;;;;;;29.85;37.00;100557.25;5010576;28;20026;-69
2022/07/22 05:51:31;;;;;;;8.90;7.35;;;;;;;29.86;36.93;100554.28;5010760;28;20068;-70
2022/07/22 05:53:56;;;;;;;9.02;7.85;;;;;;;29.83;36.94;100551.34;5010292;28;20474;-69
2022/07/22 05:56:22;;;;;;;10.68;7.50;;;;;;;29.83;36.58;100554.81;5010809;28;20107;-70
2022/07/22 05:58:47;;;;;;;10.68;7.22;;;;;;;29.81;37.12;100559.66;5010648;28;20767;-68
2022/07/22 06:01:13;;;;;;;10.00;8.23;;;;;;;29.84;37.07;100555.63;5010079;28;20084;-70
2022/07/22 06:03:38;;;;;;;9.57;7.30;;;;;;;29.84;36.52;100559.13;5010210;28;20387;-70
2022/07/22 06:06:08;;;;;;;9.98;7.15;;;;;;;29.85;36.61;100568.78;5010207;28;20030;-70
2022/07/22 06:08:34;;;;;;;7.95;7.03;;;;;;;29.84;36.65;100566.38;5010075;28;20030;-70
2022/07/22 06:11:00;;;;;;;11.15;6.95;;;;;;;29.85;36.81;100558.03;5010461;28;20025;-70
2022/07/22 06:13:26;;;;;;;8.65;7.53;;;;;;;29.86;36.55;100565.03;5010430;28;20669;-69
2022/07/22 06:15:52;;;;;;;9.50;7.05;;;;;;;29.87;36.74;100569.31;5010208;28;20037;-69
2022/07/22 06:18:17;;;;;;;13.68;7.53;;;;;;;29.89;36.75;100569.06;5010574;28;20029;-69
2022/07/22 06:20:43;;;;;;;7.68;6.97;;;;;;;29.91;36.46;100564.22;5010517;28;20033;-71
2022/07/22 06:23:08;;;;;;;10.88;6.28;;;;;;;29.94;36.48;100561.81;5009548;28;20470;-69
2022/07/22 06:25:34;;;;;;;8.10;6.80;;;;;;;29.95;36.53;100563.41;5010144;28;20038;-70
2022/07/22 06:27:59;;;;;;;10.82;6.55;;;;;;;29.96;36.41;100562.34;5010028;28;20033;-70
2022/07/22 06:30:26;;;;;;;8.38;6.00;;;;;;;29.96;36.59;100562.34;5010110;28;20061;-68
2022/07/22 06:32:52;;;;;;;9.73;6.25;;;;;;;29.98;36.43;100564.75;5010199;28;20026;-69
2022/07/22 06:35:17;;;;;;;12.23;6.57;;;;;;;29.99;36.84;100567.19;5009981;28;20036;-69
2022/07/22 06:37:43;;;;;;;9.43;6.50;;;;;;;29.98;36.74;100568.25;5009906;28;20050;-70
2022/07/22 06:40:08;;;;;;;10.43;6.60;;;;;;;29.96;36.30;100567.72;5009786;28;20036;-69
2022/07/22 06:42:34;;;;;;;12.13;5.95;;;;;;;29.95;36.28;100566.09;5009741;28;20534;-69
2022/07/22 06:44:59;;;;;;;9.18;6.57;;;;;;;29.95;36.44;100571.47;5009586;28;20381;-68
2022/07/22 06:47:25;;;;;;;7.25;5.63;;;;;;;29.96;36.56;100573.06;5009435;28;20057;-71
2022/07/22 06:49:51;;;;;;;7.75;5.88;;;;;;;29.97;36.34;100572.00;5009044;28;20030;-69
2022/07/22 06:52:16;;;;;;;10.65;5.63;;;;;;;29.98;36.17;100578.19;5009383;28;20432;-68
2022/07/22 06:54:41;;;;;;;14.10;6.35;;;;;;;29.96;36.36;100565.03;5009509;28;20037;-71
2022/07/22 06:57:07;;;;;;;10.30;5.90;;;;;;;29.99;36.25;100571.75;5009624;28;20040;-70
2022/07/22 06:59:32;;;;;;;8.43;6.53;;;;;;;30.00;36.35;100568.00;4991809;28;20052;-70
2022/07/22 07:01:57;;;;;;;10.18;6.28;;;;;;;30.02;36.69;100569.34;5009083;28;20491;-70
2022/07/22 07:04:23;;;;;;;11.52;6.85;;;;;;;30.04;36.33;100575.25;5009607;28;20030;-69
2022/07/22 07:06:48;;;;;;;9.85;5.80;;;;;;;30.07;36.65;100575.78;5007178;28;20084;-70
2022/07/22 07:09:14;;;;;;;10.65;5.95;;;;;;;30.09;36.48;100568.25;5009253;28;20026;-69
2022/07/22 07:11:39;;;;;;;11.80;5.25;;;;;;;30.11;36.47;100574.19;5009904;28;20034;-68
2022/07/22 07:14:04;;;;;;;11.38;5.82;;;;;;;30.12;36.22;100573.91;5002557;28;20465;-71
2022/07/22 07:16:30;;;;;;;7.03;4.88;;;;;;;30.14;35.98;100577.13;5008283;28;20026;-69
2022/07/22 07:18:55;;;;;;;8.82;5.00;;;;;;;30.15;36.38;100577.94;5009016;28;20096;-69
2022/07/22 07:21:21;;;;;;;8.18;5.18;;;;;;;30.15;36.04;100572.56;5008487;28;20029;-70
2022/07/22 07:23:47;;;;;;;12.68;4.97;;;;;;;30.18;36.27;100582.75;5009205;28;20026;-69
2022/07/22 07:26:13;;;;;;;7.47;4.18;;;;;;;30.20;36.13;100577.94;5009096;28;20160;-69
2022/07/22 07:28:38;;;;;;;7.85;4.63;;;;;;;30.22;36.25;100578.47;5008689;28;20033;-68
2022/07/22 07:31:04;;;;;;;6.10;4.88;;;;;;;30.22;35.79;100578.47;5008749;28;20029;-68
2022/07/22 07:33:29;;;;;;;10.65;5.10;;;;;;;30.23;36.03;100580.06;5008055;28;20018;-72
2022/07/22 07:35:55;;;;;;;7.70;4.50;;;;;;;30.23;36.10;100580.06;5008531;28;20556;-68
2022/07/22 07:38:20;;;;;;;10.98;5.07;;;;;;;30.26;35.31;100585.69;5005339;28;20567;-69
2022/07/22 07:40:46;;;;;;;10.02;5.00;;;;;;;30.29;35.82;100584.34;5007154;28;20044;-69
2022/07/22 07:43:11;;;;;;;14.02;4.55;;;;;;;30.35;35.29;100583.25;5004756;28;20033;-70
2022/07/22 07:45:37;;;;;;;11.38;4.40;;;;;;;30.40;35.54;100583.22;5007375;28;20370;-68
2022/07/22 07:48:03;;;;;;;9.90;3.95;;;;;;;30.44;35.38;100581.63;5008538;28;20026;-70
2022/07/22 07:50:28;;;;;;;13.60;4.38;;;;;;;30.51;36.21;100587.50;5008103;28;20568;-69
2022/07/22 07:52:55;;;;;;;7.07;4.13;;;;;;;30.55;35.71;100580.50;5007191;28;20116;-68
2022/07/22 07:55:21;;;;;;;9.27;3.72;;;;;;;30.59;36.15;100583.50;5008047;28;20029;-70
2022/07/22 07:57:48;;;;;;;7.75;3.03;;;;;;;30.58;34.91;100577.31;5008591;28;20026;-70
2022/07/22 08:00:14;;;;;;;6.30;3.25;;;;;;;30.64;34.99;100580.78;5001266;28;20125;-69
2022/07/22 08:02:40;;;;;;;12.45;6.50;;;;;;;30.66;34.45;100576.75;5004875;28;20058;-69
2022/07/22 08:05:08;;;;;;;5.30;3.30;;;;;;;30.69;33.68;100570.81;5006969;28;20034;-68
2022/07/22 08:07:33;;;;;;;2.97;2.58;;;;;;;30.74;33.19;100571.84;5006093;28;20116;-69
2022/07/22 08:09:59;;;;;;;7.50;3.22;;;;;;;30.78;33.16;100571.03;4995149;28;20136;-69
2022/07/22 08:12:24;;;;;;;5.53;2.30;;;;;;;30.81;32.63;100572.34;5005577;28;20036;-70
2022/07/22 08:14:50;;;;;;;5.63;2.20;;;;;;;30.81;33.17;100575.84;4978730;28;20090;-71
2022/07/22 08:17:15;;;;;;;4.35;2.58;;;;;;;30.77;33.22;100569.41;4988173;28;20080;-70
2022/07/22 08:19:41;;;;;;;9.70;2.92;;;;;;;30.76;33.43;100572.38;4985977;28;20033;-71
2022/07/22 08:22:06;;;;;;;3.85;2.50;;;;;;;30.73;33.70;100568.34;4993442;28;20042;-70
2022/07/22 08:24:33;;;;;;;8.63;2.65;;;;;;;30.70;33.32;100568.94;5005224;28;20177;-68
2022/07/22 08:26:58;;;;;;;2.88;2.35;;;;;;;30.68;33.82;100571.91;5007277;28;20119;-69
2022/07/22 08:29:24;;;;;;;3.47;2.80;;;;;;;30.69;33.40;100568.13;5008047;28;20430;-69
2022/07/22 08:31:49;;;;;;;4.93;2.83;;;;;;;30.71;33.34;100570.53;5006132;28;20867;-70
2022/07/22 08:34:14;;;;;;;3.67;3.10;;;;;;;30.72;33.25;100569.44;5003142;28;20034;-69
2022/07/22 08:36:40;;;;;;;4.68;2.78;;;;;;;30.71;32.73;100567.84;4991055;28;20100;-69
2022/07/22 08:39:05;;;;;;;4.10;2.63;;;;;;;30.71;32.83;100564.34;4995570;28;20049;-71
2022/07/22 08:41:36;;;;;;;4.82;2.28;;;;;;;30.71;32.68;100569.75;4998478;28;20106;-71
2022/07/22 08:44:03;;;;;;;2.28;2.03;;;;;;;30.73;33.07;100559.47;5006570;28;20104;-70
2022/07/22 08:46:29;;;;;;;2.67;2.38;;;;;;;30.78;32.79;100562.16;5008089;28;20030;-70
2022/07/22 08:48:55;;;;;;;3.22;1.88;;;;;;;30.78;32.76;100557.56;5007698;28;20149;-70
2022/07/22 08:51:21;;;;;;;4.47;2.63;;;;;;;30.78;32.51;100570.22;4999463;28;20378;-70
2022/07/22 08:53:47;;;;;;;2.13;1.75;;;;;;;30.80;32.45;100568.06;5004674;28;20188;-70
2022/07/22 08:56:13;;;;;;;1.95;1.55;;;;;;;30.85;31.86;100559.97;4998809;28;20050;-69
2022/07/22 08:58:40;;;;;;;3.70;1.77;;;;;;;30.94;31.71;100564.50;4999754;28;20026;-69
2022/07/22 09:01:07;;;;;;;2.03;1.83;;;;;;;30.95;31.56;100570.69;4991448;28;20095;-68
2022/07/22 09:03:32;;;;;;;4.15;1.75;;;;;;;30.96;31.98;100566.91;4993517;28;20033;-71
2022/07/22 09:05:58;;;;;;;1.88;1.33;;;;;;;30.97;31.15;100568.53;5004505;28;20049;-69
2022/07/22 09:08:24;;;;;;;1.63;1.13;;;;;;;30.99;31.17;100575.22;5007732;28;20370;-69
2022/07/22 09:10:50;;;;;;;4.57;1.42;;;;;;;31.00;30.60;100571.47;5002912;28;20029;-71
2022/07/22 09:13:16;;;;;;;3.20;1.02;;;;;;;31.02;30.55;100569.28;5005974;28;20049;-70
2022/07/22 09:15:47;;;;;;;1.98;1.30;;;;;;;31.01;30.26;100565.00;5011253;28;20029;-70
2022/07/22 09:18:13;;;;;;;2.63;1.15;;;;;;;31.03;30.32;100562.03;5007641;28;20025;-69
2022/07/22 09:20:38;;;;;;;3.80;0.85;;;;;;;31.00;30.82;100562.59;5010316;28;20201;-70
2022/07/22 09:23:12;;;;;;;4.13;1.63;;;;;;;31.00;30.20;100567.97;5009745;28;20401;-71
2022/07/22 09:25:39;;;;;;;16.25;2.63;;;;;;;31.11;29.94;100561.44;5005383;28;20029;-71
2022/07/22 09:28:05;;;;;;;4.68;1.98;;;;;;;31.21;29.80;100560.59;5007553;28;20044;-70
2022/07/22 09:30:30;;;;;;;6.35;2.22;;;;;;;31.16;29.94;100564.16;5008291;28;20042;-71
2022/07/22 09:32:56;;;;;;;5.78;1.80;;;;;;;31.11;29.99;100557.97;5001832;28;20489;-71
2022/07/22 09:35:22;;;;;;;4.85;1.77;;;;;;;31.06;30.27;100560.69;5006211;28;20053;-69
2022/07/22 09:37:53;;;;;;;5.18;2.35;;;;;;;31.02;30.69;100549.66;5005105;28;20433;-70
2022/07/22 09:40:24;;;;;;;7.35;4.45;;;;;;;31.01;30.28;100542.66;5006866;28;20809;-71
2022/07/22 09:42:55;;;;;;;7.70;6.03;;;;;;;31.02;30.22;100544.28;5007342;28;20038;-71
2022/07/22 09:45:23;;;;;;;8.23;6.55;;;;;;;31.06;29.66;100541.84;5007899;28;20113;-71
2022/07/22 09:47:49;;;;;;;10.15;5.25;;;;;;;31.14;29.98;100542.09;4993135;28;20053;-69
2022/07/22 09:50:17;;;;;;;7.68;6.20;;;;;;;31.19;29.43;100543.94;5010110;28;20041;-70
2022/07/22 09:52:44;;;;;;;10.82;7.10;;;;;;;31.23;29.89;100547.66;5010241;28;20032;-70
2022/07/22 09:55:10;;;;;;;7.88;6.65;;;;;;;31.25;29.63;100542.81;5009323;28;20386;-68
2022/07/22 09:57:36;;;;;;;6.38;4.78;;;;;;;31.30;29.59;100540.06;5009649;28;20151;-69
2022/07/22 10:00:04;;;;;;;6.45;4.72;;;;;;;31.38;29.42;100542.19;5009784;28;20045;-70
2022/07/22 10:02:31;;;;;;;6.07;5.07;;;;;;;31.38;29.71;100538.69;5010381;28;20053;-70
2022/07/22 10:04:59;;;;;;;5.63;5.07;;;;;;;31.37;29.54;100540.56;5010310;28;20026;-71
2022/07/22 10:07:26;;;;;;;6.97;5.75;;;;;;;31.32;29.64;100533.34;5009611;28;20119;-72
2022/07/22 10:09:53;;;;;;;7.65;5.50;;;;;;;31.29;30.02;100533.88;5009227;28;20025;-69
2022/07/22 10:12:19;;;;;;;11.70;8.00;;;;;;;31.28;30.08;100537.66;5010378;28;20315;-71
2022/07/22 10:14:46;;;;;;;10.30;9.23;;;;;;;31.38;29.43;100536.00;5010651;28;20084;-72
2022/07/22 10:17:15;;;;;;;13.60;10.40;;;;;;;31.41;29.49;100540.81;5010718;28;20040;-70
2022/07/22 10:19:41;;;;;;;15.77;12.43;;;;;;;31.49;29.29;100540.22;4991888;28;20367;-70
2022/07/22 10:22:42;;;;;;;18.58;13.68;;;;;;;31.53;29.06;100534.00;5010061;28;20060;-69
2022/07/22 10:25:10;;;;;;;18.90;14.95;;;;;;;31.50;29.54;100531.06;5007972;28;20053;-70
2022/07/22 10:27:56;;;;;;;18.55;16.42;;;;;;;31.50;28.82;100536.44;5008773;28;20037;-70
2022/07/22 10:30:38;;;;;;;20.20;15.05;;;;;;;31.51;28.96;100524.59;5010009;28;20053;-71
2022/07/22 10:33:19;;;;;;;18.42;15.02;;;;;;;31.63;28.51;100525.81;5009990;28;20401;-71
2022/07/22 10:36:00;;;;;;;17.55;14.88;;;;;;;31.75;28.21;100525.47;5009146;28;20034;-70
2022/07/22 10:38:27;;;;;;;19.98;14.98;;;;;;;31.71;29.02;100521.72;5008121;28;20464;-71
2022/07/22 10:40:52;;;;;;;18.23;14.90;;;;;;;31.75;28.62;100514.69;5008946;28;20116;-71
2022/07/22 10:43:20;;;;;;;17.25;12.50;;;;;;;31.86;27.97;100520.78;5009860;28;20148;-70
2022/07/22 10:45:46;;;;;;;13.45;12.02;;;;;;;31.94;27.94;100510.19;5009817;28;20751;-70
2022/07/22 10:48:14;;;;;;;13.85;12.18;;;;;;;31.89;28.18;100518.31;5008612;28;20120;-70
2022/07/22 10:50:42;;;;;;;15.32;11.60;;;;;;;31.83;28.59;100511.38;5009797;28;20363;-71
2022/07/22 10:53:08;;;;;;;14.35;11.18;;;;;;;31.87;28.50;100512.41;5010026;28;20088;-71
2022/07/22 10:55:35;;;;;;;11.13;9.45;;;;;;;31.88;28.47;100507.84;5007968;28;20029;-69
2022/07/22 10:58:00;;;;;;;9.93;8.93;;;;;;;31.87;28.57;100512.41;5008535;28;20026;-71
2022/07/22 11:00:27;;;;;;;9.07;8.13;;;;;;;31.82;28.33;100509.78;5009181;28;20030;-69
2022/07/22 11:02:52;;;;;;;9.23;8.40;;;;;;;31.77;28.61;100512.50;5009533;28;20065;-70
2022/07/22 11:05:30;;;;;;;9.80;6.82;;;;;;;31.81;28.56;100510.84;5009310;28;20462;-70
2022/07/22 11:07:56;;;;;;;7.38;6.45;;;;;;;31.83;28.62;100503.28;5008035;28;20719;-68
2022/07/22 11:10:21;;;;;;;9.30;6.88;;;;;;;31.83;28.59;100506.00;5007975;28;20048;-69
2022/07/22 11:12:49;;;;;;;10.15;7.35;;;;;;;31.84;28.44;100502.22;5006860;28;20022;-70
2022/07/22 11:15:14;;;;;;;8.05;6.80;;;;;;;31.82;28.65;100507.06;5009147;28;20033;-71